Time;durP1;ratioP1;P1;durP2;ratioP2;P2;SDS_P1;SDS_P2;PMS_P1;PMS_P2;Temp;Humidity;BMP_temperature;BMP_pressure;BME280_temperature;BME280_humidity;BME280_pressure;Samples;Min_cycle;Max_cycle;Signal;HPM_P1;HPM_P2
2021/11/27 00:01:27;;;;;;;26.77;18.93;;;8.30;94.10;;;;;;5051187;28;20301;-68
2021/11/27 00:03:55;;;;;;;25.17;18.00;;;8.30;94.20;;;;;;5051669;28;20210;-69
2021/11/27 00:06:23;;;;;;;25.73;18.57;;;8.30;94.20;;;;;;5030266;28;20211;-69
2021/11/27 00:08:51;;;;;;;26.80;19.60;;;8.20;94.10;;;;;;5042172;28;20332;-69
2021/11/27 00:11:20;;;;;;;31.80;19.90;;;8.20;94.20;;;;;;5052413;28;20228;-69
2021/11/27 00:13:47;;;;;;;30.33;20.87;;;8.20;94.40;;;;;;5052767;28;20213;-69
2021/11/27 00:16:15;;;;;;;27.97;19.77;;;8.20;94.40;;;;;;5067023;28;20209;-68
2021/11/27 00:18:43;;;;;;;28.47;19.80;;;8.20;94.40;;;;;;5050796;28;20234;-68
2021/11/27 00:21:13;;;;;;;33.97;21.00;;;8.10;94.40;;;;;;5049483;28;20297;-68
2021/11/27 00:23:42;;;;;;;32.30;20.07;;;8.10;94.50;;;;;;5036510;28;20290;-68
2021/11/27 00:26:13;;;;;;;30.20;21.03;;;8.10;94.60;;;;;;5042128;28;20238;-68
2021/11/27 00:28:40;;;;;;;31.70;20.80;;;8.10;94.60;;;;;;5048979;28;20210;-68
2021/11/27 00:31:16;;;;;;;35.17;21.33;;;8.20;94.80;;;;;;5046213;28;20280;-68
2021/11/27 00:33:45;;;;;;;27.53;20.27;;;8.20;94.70;;;;;;5036797;28;20210;-68
2021/11/27 00:36:13;;;;;;;28.87;19.43;;;8.10;94.70;;;;;;5039390;28;20221;-68
2021/11/27 00:38:40;;;;;;;29.67;20.67;;;8.10;94.60;;;;;;5042204;28;20602;-68
2021/11/27 00:41:09;;;;;;;29.37;20.27;;;8.10;94.50;;;;;;5043200;28;20286;-68
2021/11/27 00:43:36;;;;;;;33.03;21.93;;;8.10;94.50;;;;;;5047220;28;20293;-68
2021/11/27 00:46:04;;;;;;;31.43;20.20;;;8.10;94.60;;;;;;5047488;28;20297;-68
2021/11/27 00:48:32;;;;;;;30.50;20.43;;;8.10;94.50;;;;;;5044591;28;20230;-68
2021/11/27 00:51:12;;;;;;;33.87;22.63;;;8.00;94.40;;;;;;5047564;28;20214;-68
2021/11/27 00:53:39;;;;;;;31.97;22.23;;;8.00;94.60;;;;;;5045138;28;20272;-68
2021/11/27 00:56:08;;;;;;;31.27;20.70;;;8.00;94.80;;;;;;5045486;28;20276;-68
2021/11/27 00:58:35;;;;;;;36.67;19.70;;;8.00;94.80;;;;;;5063676;28;20621;-68
2021/11/27 01:01:08;;;;;;;28.17;20.50;;;8.00;94.80;;;;;;5044059;28;20242;-68
2021/11/27 01:03:38;;;;;;;32.17;21.63;;;8.00;94.80;;;;;;5041688;28;20246;-68
2021/11/27 01:06:07;;;;;;;34.17;21.63;;;7.90;94.80;;;;;;5042001;28;20214;-68
2021/11/27 01:08:36;;;;;;;31.93;21.53;;;8.00;94.90;;;;;;5044343;28;20682;-68
2021/11/27 01:11:07;;;;;;;32.07;21.20;;;8.00;95.00;;;;;;5041007;28;20225;-68
2021/11/27 01:13:36;;;;;;;32.80;21.47;;;8.00;95.00;;;;;;5038380;28;20215;-68
2021/11/27 01:16:06;;;;;;;33.23;21.63;;;8.00;95.00;;;;;;5039662;28;20211;-68
2021/11/27 01:18:34;;;;;;;29.87;21.37;;;8.10;95.00;;;;;;5038293;28;20207;-68
2021/11/27 01:21:07;;;;;;;31.30;22.23;;;8.10;95.00;;;;;;5038246;28;20262;-68
2021/11/27 01:23:37;;;;;;;29.90;20.33;;;8.10;95.00;;;;;;5035070;28;20382;-68
2021/11/27 01:26:04;;;;;;;31.87;21.60;;;8.10;95.00;;;;;;5045525;28;20268;-68
2021/11/27 01:28:32;;;;;;;32.50;22.07;;;8.10;94.80;;;;;;5055963;28;20214;-68
2021/11/27 01:31:00;;;;;;;37.47;23.10;;;8.10;94.70;;;;;;5055513;28;20220;-68
2021/11/27 01:33:30;;;;;;;36.00;22.73;;;8.00;94.80;;;;;;5070610;28;20224;-68
2021/11/27 01:35:59;;;;;;;32.80;21.73;;;8.00;95.00;;;;;;5046786;28;20247;-68
2021/11/27 01:38:26;;;;;;;28.83;19.77;;;8.00;95.10;;;;;;5037580;28;20639;-68
2021/11/27 01:40:54;;;;;;;30.30;19.70;;;8.00;95.00;;;;;;5037865;28;20337;-68
2021/11/27 01:43:22;;;;;;;30.63;20.37;;;8.00;95.00;;;;;;5038951;28;20240;-68
2021/11/27 01:45:49;;;;;;;33.77;20.03;;;8.00;94.90;;;;;;5039318;28;20210;-68
2021/11/27 01:48:19;;;;;;;30.37;19.93;;;8.00;94.90;;;;;;5049411;28;20242;-68
2021/11/27 01:50:55;;;;;;;30.70;19.57;;;8.00;94.90;;;;;;5037135;28;20220;-68
2021/11/27 01:53:23;;;;;;;30.13;19.77;;;7.90;94.90;;;;;;5059757;28;20250;-68
2021/11/27 01:55:53;;;;;;;31.97;20.33;;;8.00;95.00;;;;;;5040246;28;20210;-68
2021/11/27 01:58:21;;;;;;;31.20;19.60;;;8.00;95.00;;;;;;5047039;28;20233;-68
2021/11/27 02:00:52;;;;;;;34.13;19.67;;;8.00;94.90;;;;;;5046826;28;20254;-68
2021/11/27 02:03:20;;;;;;;29.67;18.63;;;7.90;94.80;;;;;;5043583;28;20305;-68
2021/11/27 02:05:51;;;;;;;25.27;18.67;;;7.90;94.70;;;;;;5045979;28;20732;-68
2021/11/27 02:08:18;;;;;;;29.53;20.17;;;7.90;94.60;;;;;;5042117;28;20338;-68
2021/11/27 02:10:46;;;;;;;26.80;19.80;;;7.90;94.60;;;;;;5045096;28;20223;-68
2021/11/27 02:13:13;;;;;;;31.50;19.93;;;7.80;94.50;;;;;;5046196;28;20215;-68
2021/11/27 02:15:40;;;;;;;30.33;20.70;;;7.80;94.60;;;;;;5046037;28;20246;-68
2021/11/27 02:18:07;;;;;;;29.27;20.07;;;7.80;94.60;;;;;;5044786;28;20210;-68
2021/11/27 02:20:41;;;;;;;33.73;20.30;;;7.80;94.60;;;;;;5042702;28;20242;-68
2021/11/27 02:23:08;;;;;;;29.10;19.83;;;7.80;94.60;;;;;;5040804;28;20221;-68
2021/11/27 02:25:35;;;;;;;25.17;18.37;;;7.80;94.60;;;;;;5042639;28;20314;-68
2021/11/27 02:28:04;;;;;;;27.03;17.60;;;7.80;94.50;;;;;;5061136;28;20294;-68
2021/11/27 02:30:31;;;;;;;25.93;17.97;;;7.80;94.40;;;;;;5049273;28;20753;-68
2021/11/27 02:32:58;;;;;;;29.57;17.27;;;7.80;94.20;;;;;;5041405;28;20539;-68
2021/11/27 02:35:25;;;;;;;28.90;18.47;;;7.80;93.90;;;;;;5035160;28;20624;-69
2021/11/27 02:37:53;;;;;;;28.87;19.83;;;7.70;93.90;;;;;;5037701;28;20651;-69
2021/11/27 02:40:20;;;;;;;28.00;19.00;;;7.70;94.10;;;;;;5035695;28;20698;-69
2021/11/27 02:42:47;;;;;;;31.50;18.80;;;7.60;94.20;;;;;;5036501;28;20238;-68
2021/11/27 02:45:14;;;;;;;23.37;17.47;;;7.60;94.30;;;;;;5035118;28;20708;-68
2021/11/27 02:47:41;;;;;;;27.27;17.97;;;7.60;94.30;;;;;;5034277;28;20210;-68
2021/11/27 02:50:12;;;;;;;25.70;17.67;;;7.60;94.30;;;;;;5034895;28;20215;-68
2021/11/27 02:52:40;;;;;;;26.73;19.70;;;7.60;94.20;;;;;;5041157;28;20215;-68
2021/11/27 02:55:09;;;;;;;25.93;18.20;;;7.60;94.30;;;;;;5036058;28;20225;-68
2021/11/27 02:57:36;;;;;;;25.40;17.50;;;7.60;94.30;;;;;;5052280;28;20232;-68
2021/11/27 03:00:10;;;;;;;25.23;17.60;;;7.60;94.30;;;;;;5063790;28;20242;-68
2021/11/27 03:02:39;;;;;;;27.53;16.90;;;7.60;94.20;;;;;;5039572;28;20272;-68
2021/11/27 03:05:07;;;;;;;23.47;17.87;;;7.60;94.10;;;;;;5050527;28;20210;-68
2021/11/27 03:07:34;;;;;;;27.10;18.17;;;7.60;94.00;;;;;;5065316;28;20522;-68
2021/11/27 03:10:01;;;;;;;27.50;17.50;;;7.60;93.80;;;;;;5047909;28;20247;-68
2021/11/27 03:12:28;;;;;;;27.90;20.30;;;7.60;93.80;;;;;;5048202;28;20302;-68
2021/11/27 03:14:57;;;;;;;28.20;19.07;;;7.60;93.90;;;;;;5047856;28;20221;-68
2021/11/27 03:17:25;;;;;;;31.17;19.90;;;7.60;93.90;;;;;;5046668;28;20222;-68
2021/11/27 03:19:52;;;;;;;33.90;20.57;;;7.60;94.00;;;;;;5042741;28;20304;-68
2021/11/27 03:22:19;;;;;;;27.07;19.83;;;7.60;94.00;;;;;;5041753;28;20207;-68
2021/11/27 03:24:47;;;;;;;32.53;19.63;;;7.70;94.10;;;;;;5041681;28;20223;-68
2021/11/27 03:27:15;;;;;;;29.43;18.63;;;7.70;94.10;;;;;;5043384;28;20344;-68
2021/11/27 03:29:43;;;;;;;23.37;16.80;;;7.70;94.10;;;;;;5041942;28;20215;-68
2021/11/27 03:32:14;;;;;;;23.80;17.47;;;7.70;94.10;;;;;;5043103;28;20214;-69
2021/11/27 03:34:42;;;;;;;25.80;18.67;;;7.70;94.00;;;;;;5042971;28;20301;-69
2021/11/27 03:37:10;;;;;;;24.70;16.57;;;7.80;94.00;;;;;;5043672;28;20524;-69
2021/11/27 03:39:38;;;;;;;23.43;17.13;;;7.70;93.90;;;;;;5062033;28;20590;-69
2021/11/27 03:42:14;;;;;;;24.33;16.53;;;7.70;93.80;;;;;;5043363;28;20210;-68
2021/11/27 03:44:45;;;;;;;24.73;17.20;;;7.70;93.70;;;;;;5047389;28;20649;-68
2021/11/27 03:47:13;;;;;;;30.30;15.87;;;7.70;93.60;;;;;;5046962;28;20301;-68
2021/11/27 03:49:41;;;;;;;24.83;15.77;;;7.70;93.60;;;;;;5049120;28;20226;-68
2021/11/27 03:52:08;;;;;;;26.97;17.80;;;7.60;93.40;;;;;;5037779;28;20226;-68
2021/11/27 03:54:36;;;;;;;25.60;18.67;;;7.60;93.40;;;;;;5037445;28;20219;-68
2021/11/27 03:57:03;;;;;;;25.40;18.23;;;7.50;93.50;;;;;;5047224;28;20665;-68
2021/11/27 03:59:30;;;;;;;26.70;17.83;;;7.50;93.70;;;;;;5039855;28;20321;-68
2021/11/27 04:01:58;;;;;;;24.33;16.90;;;7.50;93.70;;;;;;5035004;28;20203;-68
2021/11/27 04:04:26;;;;;;;24.00;17.67;;;7.50;93.80;;;;;;5035547;28;20215;-68
2021/11/27 04:06:54;;;;;;;24.73;16.10;;;7.50;93.80;;;;;;5030420;28;20597;-68
2021/11/27 04:09:21;;;;;;;20.50;14.37;;;7.50;93.70;;;;;;5033243;28;20644;-68
2021/11/27 04:11:48;;;;;;;21.10;15.47;;;7.50;93.70;;;;;;5032650;28;20674;-68
2021/11/27 04:14:16;;;;;;;19.97;14.37;;;7.40;93.70;;;;;;5040039;28;20563;-68
2021/11/27 04:16:43;;;;;;;24.57;14.77;;;7.40;93.60;;;;;;5050433;28;20202;-68
2021/11/27 04:19:10;;;;;;;20.57;14.60;;;7.40;93.60;;;;;;5063478;28;20218;-68
2021/11/27 04:21:38;;;;;;;16.80;12.93;;;7.40;93.60;;;;;;5048745;28;20241;-68
2021/11/27 04:24:05;;;;;;;19.00;13.30;;;7.30;93.40;;;;;;5033575;28;20223;-68
2021/11/27 04:26:32;;;;;;;23.97;14.97;;;7.30;93.10;;;;;;5043688;28;20241;-68
2021/11/27 04:28:59;;;;;;;21.97;15.30;;;7.30;93.10;;;;;;5046596;28;20217;-69
2021/11/27 04:31:26;;;;;;;19.50;12.87;;;7.20;93.20;;;;;;5044899;28;20232;-68
2021/11/27 04:33:54;;;;;;;20.50;13.50;;;7.20;93.40;;;;;;5043117;28;20214;-69
2021/11/27 04:36:21;;;;;;;24.17;14.80;;;7.30;93.50;;;;;;5046170;28;20214;-68
2021/11/27 04:38:49;;;;;;;20.23;14.20;;;7.30;93.70;;;;;;5041867;28;20239;-68
2021/11/27 04:41:16;;;;;;;29.23;14.77;;;7.30;93.60;;;;;;5040172;28;20241;-68
2021/11/27 04:43:44;;;;;;;28.50;16.97;;;7.30;93.70;;;;;;5054681;28;20600;-68
2021/11/27 04:46:11;;;;;;;26.43;17.50;;;7.30;93.60;;;;;;5042966;28;20214;-69
2021/11/27 04:48:38;;;;;;;30.10;15.93;;;7.40;93.70;;;;;;5042121;28;20268;-68
2021/11/27 04:51:05;;;;;;;24.23;13.87;;;7.30;93.70;;;;;;5043861;28;20222;-68
2021/11/27 04:53:33;;;;;;;20.57;15.30;;;7.40;93.80;;;;;;5039891;28;20207;-68
2021/11/27 04:56:01;;;;;;;22.87;15.40;;;7.40;93.90;;;;;;5041479;28;20269;-68
2021/11/27 04:58:29;;;;;;;19.47;13.83;;;7.40;93.90;;;;;;5060555;28;20254;-68
2021/11/27 05:00:56;;;;;;;20.00;14.53;;;7.50;93.90;;;;;;5056368;28;20237;-68
2021/11/27 05:03:24;;;;;;;26.87;14.13;;;7.50;93.60;;;;;;5038847;28;20295;-68
2021/11/27 05:05:51;;;;;;;22.53;14.60;;;7.40;93.50;;;;;;5041300;28;20238;-68
2021/11/27 05:08:18;;;;;;;22.80;15.83;;;7.40;93.20;;;;;;5035285;28;20239;-68
2021/11/27 05:10:46;;;;;;;27.50;16.53;;;7.30;93.00;;;;;;5037211;28;20215;-68
2021/11/27 05:13:13;;;;;;;25.30;16.87;;;7.30;93.10;;;;;;5036145;28;20215;-68
2021/11/27 05:15:40;;;;;;;25.23;17.37;;;7.20;93.20;;;;;;5035954;28;20218;-68
2021/11/27 05:18:08;;;;;;;31.70;16.80;;;7.20;93.20;;;;;;5034864;28;20281;-68
2021/11/27 05:20:35;;;;;;;25.80;18.33;;;7.10;93.30;;;;;;5043553;28;20241;-68
2021/11/27 05:23:02;;;;;;;25.37;17.93;;;7.10;93.30;;;;;;5048821;28;20226;-68
2021/11/27 05:25:30;;;;;;;30.30;18.17;;;7.10;93.40;;;;;;5051531;28;20221;-68
2021/11/27 05:27:57;;;;;;;23.00;16.37;;;7.00;93.40;;;;;;5048857;28;20229;-68
2021/11/27 05:30:26;;;;;;;26.10;17.57;;;7.00;93.40;;;;;;5055708;28;20214;-68
2021/11/27 05:35:25;;;;;;;26.97;17.83;;;6.90;93.30;;;;;;5043911;28;20222;-68
2021/11/27 05:37:52;;;;;;;25.67;17.27;;;6.90;93.40;;;;;;5034219;28;20319;-68
2021/11/27 05:40:19;;;;;;;27.83;16.73;;;6.90;93.20;;;;;;5038108;28;20230;-68
2021/11/27 05:42:46;;;;;;;22.33;16.23;;;6.80;93.20;;;;;;5038829;28;20594;-68
2021/11/27 05:45:14;;;;;;;22.67;16.23;;;6.90;93.30;;;;;;5048588;28;20238;-68
2021/11/27 05:47:41;;;;;;;20.67;15.20;;;6.80;93.30;;;;;;5051304;28;20215;-68
2021/11/27 05:50:09;;;;;;;29.30;16.47;;;6.80;93.40;;;;;;5043592;28;20704;-68
2021/11/27 05:52:37;;;;;;;22.30;15.70;;;6.70;93.30;;;;;;5048879;28;20569;-68
2021/11/27 05:55:06;;;;;;;21.43;16.70;;;6.70;93.20;;;;;;5046084;28;20222;-68
2021/11/27 05:57:33;;;;;;;26.43;15.77;;;6.70;93.30;;;;;;5039868;28;20227;-68
2021/11/27 06:00:03;;;;;;;22.83;15.87;;;6.70;93.30;;;;;;5042022;28;20671;-68
2021/11/27 06:02:30;;;;;;;24.10;16.70;;;6.60;93.30;;;;;;5047350;28;20215;-68
2021/11/27 06:04:57;;;;;;;25.70;16.57;;;6.60;93.30;;;;;;5046617;28;20269;-68
2021/11/27 06:07:24;;;;;;;20.53;13.87;;;6.70;93.40;;;;;;5044884;28;20218;-68
2021/11/27 06:09:51;;;;;;;24.90;15.53;;;6.60;93.40;;;;;;5044589;28;20245;-68
2021/11/27 06:12:18;;;;;;;23.10;15.70;;;6.60;93.30;;;;;;5045296;28;20207;-68
2021/11/27 06:14:45;;;;;;;18.97;14.17;;;6.60;93.20;;;;;;5060597;28;20226;-68
2021/11/27 06:17:12;;;;;;;24.40;15.10;;;6.50;93.20;;;;;;5046659;28;20226;-68
2021/11/27 06:19:39;;;;;;;18.30;13.93;;;6.50;93.10;;;;;;5047877;28;20214;-68
2021/11/27 06:22:06;;;;;;;23.33;16.53;;;6.50;93.10;;;;;;5039899;28;20235;-68
2021/11/27 06:24:33;;;;;;;22.90;16.50;;;6.50;93.20;;;;;;5045140;28;20259;-68
2021/11/27 06:27:00;;;;;;;17.67;13.20;;;6.40;93.20;;;;;;5044019;28;20265;-68
2021/11/27 06:29:28;;;;;;;20.33;12.20;;;6.40;93.20;;;;;;5041534;28;20211;-68
2021/11/27 06:31:55;;;;;;;18.93;13.33;;;6.40;92.90;;;;;;5049289;28;20226;-68
2021/11/27 06:34:22;;;;;;;18.93;13.57;;;6.30;92.70;;;;;;5050525;28;20268;-68
2021/11/27 06:36:49;;;;;;;18.87;13.97;;;6.30;92.70;;;;;;5045318;28;20218;-68
2021/11/27 06:39:16;;;;;;;22.77;15.07;;;6.20;92.70;;;;;;5045358;28;20218;-68
2021/11/27 06:41:43;;;;;;;16.93;13.20;;;6.20;92.90;;;;;;5052132;28;20237;-68
2021/11/27 06:44:10;;;;;;;15.37;11.80;;;6.20;93.00;;;;;;5069104;28;20210;-68
2021/11/27 06:46:37;;;;;;;20.97;14.07;;;6.20;93.00;;;;;;5039646;28;20647;-68
2021/11/27 06:49:04;;;;;;;20.70;14.37;;;6.20;92.80;;;;;;5034766;28;20835;-68
2021/11/27 06:51:31;;;;;;;20.43;13.77;;;6.10;92.80;;;;;;5053306;28;20229;-68
2021/11/27 06:53:58;;;;;;;24.53;15.73;;;6.10;92.80;;;;;;5067950;28;20218;-68
2021/11/27 06:56:25;;;;;;;19.40;14.03;;;6.10;92.90;;;;;;5042959;28;20210;-68
2021/11/27 06:58:53;;;;;;;19.00;13.57;;;6.20;93.00;;;;;;5052490;28;20660;-68
2021/11/27 07:01:20;;;;;;;19.20;13.60;;;6.20;92.80;;;;;;5047309;28;20222;-68
2021/11/27 07:03:47;;;;;;;24.47;16.10;;;6.20;92.90;;;;;;5037720;28;20221;-68
2021/11/27 07:06:14;;;;;;;18.70;13.70;;;6.20;93.00;;;;;;5037044;28;20219;-68
2021/11/27 07:08:41;;;;;;;21.30;15.20;;;6.20;93.00;;;;;;5041040;28;20697;-68
2021/11/27 07:11:08;;;;;;;22.50;15.20;;;6.20;93.00;;;;;;5040383;28;20226;-68
2021/11/27 07:13:35;;;;;;;20.33;13.80;;;6.20;93.20;;;;;;5040613;28;20257;-68
2021/11/27 07:16:03;;;;;;;20.23;13.73;;;6.20;93.30;;;;;;5040627;28;20277;-68
2021/11/27 07:18:29;;;;;;;23.03;15.07;;;6.30;93.40;;;;;;5040399;28;20207;-68
2021/11/27 07:20:57;;;;;;;21.13;14.00;;;6.40;93.40;;;;;;5042106;28;20241;-68
2021/11/27 07:23:25;;;;;;;21.53;15.00;;;6.40;93.40;;;;;;5042297;28;20688;-68
2021/11/27 07:25:52;;;;;;;23.30;13.87;;;6.50;93.40;;;;;;5042447;28;20237;-68
2021/11/27 07:28:19;;;;;;;18.83;13.63;;;6.50;93.40;;;;;;5043443;28;20257;-68
2021/11/27 07:30:46;;;;;;;18.60;13.83;;;6.70;93.40;;;;;;5043502;28;20214;-68
2021/11/27 07:33:13;;;;;;;22.60;14.53;;;6.70;93.30;;;;;;5043681;28;20221;-68
2021/11/27 07:35:40;;;;;;;20.47;14.77;;;6.80;93.30;;;;;;5042546;28;20225;-68
2021/11/27 07:38:07;;;;;;;18.43;13.13;;;6.80;93.20;;;;;;5060824;28;20257;-68
2021/11/27 07:40:35;;;;;;;19.23;13.33;;;6.90;93.20;;;;;;5043531;28;20671;-68
2021/11/27 07:43:05;;;;;;;21.63;14.43;;;6.90;93.10;;;;;;5061406;28;20647;-69
2021/11/27 07:45:34;;;;;;;20.83;14.33;;;7.00;92.50;;;;;;5039350;28;20302;-69
2021/11/27 07:48:01;;;;;;;19.77;14.77;;;7.00;92.50;;;;;;5039212;28;20224;-68
2021/11/27 07:50:29;;;;;;;21.93;15.57;;;7.10;92.80;;;;;;5048725;28;20752;-68
2021/11/27 07:52:56;;;;;;;18.60;14.10;;;7.20;93.00;;;;;;5063963;28;20221;-68
2021/11/27 07:55:24;;;;;;;18.50;14.57;;;7.40;93.20;;;;;;5047211;28;20627;-68
2021/11/27 07:57:51;;;;;;;20.67;13.20;;;7.50;93.30;;;;;;5034283;28;20277;-68
2021/11/27 08:00:18;;;;;;;22.40;14.50;;;7.60;93.30;;;;;;5047553;28;20265;-69
2021/11/27 08:02:45;;;;;;;21.70;15.13;;;7.80;93.30;;;;;;5049372;28;20229;-69
2021/11/27 08:05:13;;;;;;;17.27;14.10;;;8.00;93.30;;;;;;5035993;28;20222;-69
2021/11/27 08:07:40;;;;;;;20.33;14.57;;;8.10;93.00;;;;;;5036395;28;20206;-69
2021/11/27 08:10:10;;;;;;;20.83;13.70;;;8.10;92.70;;;;;;5053028;28;20629;-69
2021/11/27 08:12:38;;;;;;;19.23;12.70;;;8.10;92.60;;;;;;5052647;28;20218;-69
2021/11/27 08:15:07;;;;;;;22.53;14.07;;;8.20;92.70;;;;;;5053265;28;20574;-69
2021/11/27 08:17:37;;;;;;;22.70;13.00;;;8.30;92.60;;;;;;5035336;28;20292;-69
2021/11/27 08:20:05;;;;;;;18.10;13.30;;;8.40;92.50;;;;;;5044348;28;20544;-69
2021/11/27 08:22:32;;;;;;;20.57;13.20;;;8.50;92.30;;;;;;5041436;28;20231;-69
2021/11/27 08:24:59;;;;;;;20.07;13.67;;;8.60;92.30;;;;;;5043685;28;20273;-68
2021/11/27 08:27:29;;;;;;;19.40;13.50;;;8.70;92.20;;;;;;5041585;28;20211;-68
2021/11/27 08:29:57;;;;;;;17.30;13.27;;;8.90;92.20;;;;;;5063899;28;20218;-68
2021/11/27 08:32:24;;;;;;;23.00;13.63;;;9.00;92.10;;;;;;5047575;28;20295;-68
2021/11/27 08:34:51;;;;;;;17.07;12.37;;;9.10;91.90;;;;;;5044386;28;20223;-68
2021/11/27 08:37:18;;;;;;;21.17;13.83;;;9.20;91.80;;;;;;5041014;28;20222;-68
2021/11/27 08:39:49;;;;;;;22.13;13.57;;;9.40;91.60;;;;;;5044951;28;20614;-68
2021/11/27 08:42:21;;;;;;;22.77;14.27;;;9.50;91.60;;;;;;5041646;28;20230;-68
2021/11/27 08:44:49;;;;;;;19.23;13.50;;;9.60;91.60;;;;;;5023868;28;20564;-68
2021/11/27 08:47:17;;;;;;;25.30;15.43;;;9.70;91.40;;;;;;5041712;28;20218;-68
2021/11/27 08:49:45;;;;;;;22.20;14.53;;;9.70;91.20;;;;;;5042527;28;20518;-68
2021/11/27 08:52:13;;;;;;;17.93;12.93;;;9.80;91.10;;;;;;5041160;28;20215;-68
2021/11/27 08:54:40;;;;;;;20.03;13.63;;;9.90;91.20;;;;;;5042303;28;20665;-68
2021/11/27 08:57:07;;;;;;;24.30;15.47;;;9.90;91.20;;;;;;5041713;28;20211;-68
2021/11/27 08:59:36;;;;;;;23.17;15.57;;;10.00;91.20;;;;;;5044911;28;20289;-68
2021/11/27 09:02:04;;;;;;;21.43;15.13;;;10.10;91.10;;;;;;5047348;28;20321;-68
2021/11/27 09:04:33;;;;;;;22.60;15.23;;;10.10;91.00;;;;;;5017132;28;20574;-68
2021/11/27 09:07:02;;;;;;;24.47;16.20;;;10.20;90.90;;;;;;5037745;28;20222;-68
2021/11/27 09:09:29;;;;;;;20.73;16.20;;;10.30;90.80;;;;;;5035183;28;20581;-68
2021/11/27 09:11:57;;;;;;;23.37;14.80;;;10.30;90.70;;;;;;5045357;28;20242;-68
2021/11/27 09:14:24;;;;;;;25.33;17.20;;;10.50;90.80;;;;;;5041828;28;20437;-69
2021/11/27 09:16:52;;;;;;;27.43;16.37;;;10.60;90.40;;;;;;5033558;28;20230;-69
2021/11/27 09:19:20;;;;;;;21.63;16.33;;;10.70;90.50;;;;;;5036409;28;20277;-69
2021/11/27 09:21:50;;;;;;;24.40;16.63;;;10.90;90.40;;;;;;5057521;28;20709;-69
2021/11/27 09:24:19;;;;;;;21.20;14.83;;;10.90;90.10;;;;;;5038628;28;20234;-69
2021/11/27 09:26:47;;;;;;;22.50;16.23;;;11.00;90.00;;;;;;5035209;28;20225;-69
2021/11/27 09:29:17;;;;;;;34.77;16.07;;;11.10;89.80;;;;;;5031011;28;20231;-69
2021/11/27 09:31:44;;;;;;;23.67;16.20;;;11.20;89.40;;;;;;5031863;28;20551;-69
2021/11/27 09:34:12;;;;;;;20.43;14.17;;;11.30;89.20;;;;;;5041868;28;20218;-69
2021/11/27 09:36:40;;;;;;;23.03;15.43;;;11.30;89.10;;;;;;5037808;28;20568;-69
2021/11/27 09:39:10;;;;;;;23.00;15.33;;;11.40;89.30;;;;;;5029882;28;20214;-69
2021/11/27 09:41:41;;;;;;;23.03;14.77;;;11.40;89.30;;;;;;5033153;28;20256;-69
2021/11/27 09:44:10;;;;;;;20.20;13.67;;;11.50;89.00;;;;;;5038312;28;20280;-69
2021/11/27 09:46:41;;;;;;;20.53;14.67;;;11.60;88.50;;;;;;5039592;28;20661;-69
2021/11/27 09:49:12;;;;;;;24.27;14.40;;;11.70;88.50;;;;;;5033373;28;20215;-69
2021/11/27 09:51:40;;;;;;;16.47;12.57;;;11.80;88.20;;;;;;5042181;28;20222;-69
2021/11/27 09:54:12;;;;;;;20.30;14.77;;;11.90;87.90;;;;;;5057479;28;20214;-69
2021/11/27 09:56:39;;;;;;;20.93;13.90;;;12.00;87.50;;;;;;5023576;28;20223;-69
2021/11/27 09:59:06;;;;;;;27.17;15.03;;;12.10;87.30;;;;;;5037420;28;20214;-69
2021/11/27 10:01:35;;;;;;;21.07;14.53;;;12.20;87.00;;;;;;5046161;28;20230;-69
2021/11/27 10:04:08;;;;;;;23.07;15.10;;;12.20;86.60;;;;;;5045270;28;20231;-69
2021/11/27 10:06:38;;;;;;;24.83;13.97;;;12.30;86.30;;;;;;5046096;28;20229;-69
2021/11/27 10:09:11;;;;;;;20.03;12.40;;;12.40;86.20;;;;;;5037935;28;20253;-69
2021/11/27 10:11:39;;;;;;;16.87;12.27;;;12.40;85.00;;;;;;5043260;28;20215;-69
2021/11/27 10:14:06;;;;;;;15.30;9.27;;;12.40;82.90;;;;;;5039263;28;20219;-69
2021/11/27 10:16:54;;;;;;;15.80;8.57;;;12.40;83.30;;;;;;5039394;28;20222;-69
2021/11/27 10:19:21;;;;;;;16.60;10.30;;;12.50;80.90;;;;;;5040674;28;20225;-69
2021/11/27 10:21:55;;;;;;;16.43;8.97;;;12.50;80.70;;;;;;5037800;28;20238;-68
2021/11/27 10:24:27;;;;;;;15.43;10.57;;;12.50;81.10;;;;;;5054914;28;20272;-68
2021/11/27 10:26:56;;;;;;;13.73;9.30;;;12.60;81.40;;;;;;5038070;28;20226;-68
2021/11/27 10:29:25;;;;;;;18.17;10.03;;;12.60;81.50;;;;;;5041261;28;20675;-68
2021/11/27 10:32:12;;;;;;;15.90;10.63;;;12.70;80.70;;;;;;5054137;28;20309;-68
2021/11/27 10:34:47;;;;;;;16.43;12.07;;;12.70;79.10;;;;;;5032497;28;20216;-68
2021/11/27 10:37:30;;;;;;;15.57;12.10;;;12.80;78.80;;;;;;5039813;28;20214;-68
2021/11/27 10:40:03;;;;;;;19.13;14.07;;;12.80;79.50;;;;;;5036571;28;20289;-70
2021/11/27 10:42:31;;;;;;;21.43;14.20;;;12.90;79.80;;;;;;5035226;28;20246;-70
2021/11/27 10:45:22;;;;;;;23.47;15.80;;;13.00;80.00;;;;;;5040077;28;20207;-70
2021/11/27 10:47:52;;;;;;;20.10;11.33;;;13.00;80.40;;;;;;5036711;28;20223;-69
2021/11/27 10:50:23;;;;;;;13.13;8.17;;;13.10;79.20;;;;;;5034664;28;20594;-69
2021/11/27 10:52:52;;;;;;;13.27;8.43;;;13.10;75.50;;;;;;5034292;28;20222;-69
2021/11/27 10:55:25;;;;;;;14.57;9.00;;;13.20;75.50;;;;;;5034209;28;20218;-69
2021/11/27 10:57:58;;;;;;;15.30;8.70;;;13.20;75.30;;;;;;5036115;28;20237;-69
2021/11/27 11:00:41;;;;;;;15.00;8.30;;;13.30;75.10;;;;;;5046342;28;20202;-69
2021/11/27 11:03:31;;;;;;;13.60;7.43;;;13.30;75.60;;;;;;5034375;28;20300;-69
2021/11/27 11:06:00;;;;;;;11.73;7.53;;;13.40;73.40;;;;;;5038899;28;20215;-69
2021/11/27 11:08:35;;;;;;;11.23;6.50;;;13.50;75.40;;;;;;5035793;28;20254;-69
2021/11/27 11:11:23;;;;;;;11.27;7.30;;;13.50;73.50;;;;;;5039048;28;20218;-69
2021/11/27 11:13:57;;;;;;;12.57;6.27;;;13.60;72.80;;;;;;5040445;28;20219;-69
2021/11/27 11:16:28;;;;;;;10.13;6.87;;;13.70;72.70;;;;;;5043271;28;20650;-69
2021/11/27 11:19:12;;;;;;;10.33;5.77;;;13.70;72.70;;;;;;5046876;28;20221;-69
2021/11/27 11:21:59;;;;;;;10.10;5.43;;;13.70;72.60;;;;;;5043461;28;20246;-69
2021/11/27 11:24:26;;;;;;;7.07;4.03;;;13.80;72.60;;;;;;5041804;28;20222;-69
2021/11/27 11:26:54;;;;;;;13.60;3.77;;;13.80;73.20;;;;;;5042465;28;20207;-69
2021/11/27 11:29:47;;;;;;;6.30;2.97;;;13.90;71.90;;;;;;5043213;28;20269;-69
2021/11/27 11:32:17;;;;;;;6.17;3.50;;;14.00;68.60;;;;;;5041145;28;20210;-69
2021/11/27 11:34:45;;;;;;;10.17;3.27;;;14.10;69.00;;;;;;5041593;28;20214;-69
2021/11/27 11:37:12;;;;;;;8.03;3.10;;;14.10;69.90;;;;;;5042953;28;20219;-69
2021/11/27 11:39:39;;;;;;;7.40;2.60;;;14.10;69.30;;;;;;5046084;28;20559;-69
2021/11/27 11:42:07;;;;;;;5.13;2.97;;;14.10;68.50;;;;;;5046164;28;20630;-69
2021/11/27 11:44:41;;;;;;;6.57;3.07;;;14.20;68.20;;;;;;5045943;28;20217;-69
2021/11/27 11:47:09;;;;;;;7.83;3.20;;;14.20;69.40;;;;;;5048106;28;20302;-69
2021/11/27 11:49:37;;;;;;;7.87;3.10;;;14.20;68.20;;;;;;5048791;28;20214;-69
2021/11/27 11:52:24;;;;;;;9.87;3.67;;;14.20;67.40;;;;;;5046252;28;20636;-69
2021/11/27 11:54:59;;;;;;;4.80;3.80;;;14.30;68.20;;;;;;5036967;28;20215;-70
2021/11/27 11:57:46;;;;;;;5.63;3.00;;;14.30;69.20;;;;;;5036556;28;20214;-69
2021/11/27 12:00:22;;;;;;;9.80;3.80;;;14.30;68.00;;;;;;5041948;28;20214;-69
2021/11/27 12:02:49;;;;;;;10.20;4.00;;;14.30;69.70;;;;;;5041782;28;20234;-69
2021/11/27 12:05:21;;;;;;;9.27;3.53;;;14.40;67.80;;;;;;5036812;28;20219;-69
2021/11/27 12:07:50;;;;;;;9.03;4.40;;;14.40;66.90;;;;;;5047503;28;20215;-69
2021/11/27 12:10:41;;;;;;;5.90;2.93;;;14.40;67.10;;;;;;5031730;28;20215;-69
2021/11/27 12:13:09;;;;;;;10.27;3.83;;;14.50;66.40;;;;;;5034492;28;20250;-69
2021/11/27 12:16:00;;;;;;;7.77;3.50;;;14.50;67.30;;;;;;5034417;28;20215;-69
2021/11/27 12:18:28;;;;;;;8.17;3.40;;;14.50;66.30;;;;;;5036781;28;20237;-69
2021/11/27 12:20:57;;;;;;;5.67;3.63;;;14.50;66.80;;;;;;5049598;28;20219;-69
2021/11/27 12:23:40;;;;;;;7.27;3.67;;;14.50;66.90;;;;;;5043676;28;20248;-69
2021/11/27 12:26:07;;;;;;;10.30;3.43;;;14.50;67.30;;;;;;5040928;28;20215;-69
2021/11/27 12:28:38;;;;;;;9.57;3.73;;;14.50;68.40;;;;;;5042166;28;20604;-69
2021/11/27 12:31:12;;;;;;;5.97;3.80;;;14.50;69.50;;;;;;5037760;28;20214;-69
2021/11/27 12:33:53;;;;;;;7.20;3.80;;;14.60;68.40;;;;;;5049928;28;20218;-69
2021/11/27 12:36:43;;;;;;;9.27;3.80;;;14.60;68.90;;;;;;5042620;28;20229;-69
2021/11/27 12:39:10;;;;;;;7.00;3.40;;;14.60;67.60;;;;;;5039973;28;20229;-69
2021/11/27 12:41:47;;;;;;;8.27;3.30;;;14.50;68.00;;;;;;5042514;28;20210;-69
2021/11/27 12:44:34;;;;;;;5.70;2.90;;;14.50;68.10;;;;;;5043640;28;20541;-69
2021/11/27 12:47:26;;;;;;;10.70;3.07;;;14.60;66.10;;;;;;5059259;28;20640;-69
2021/11/27 12:49:59;;;;;;;8.03;2.90;;;14.70;64.80;;;;;;5043828;28;20631;-69